Pagrindinis puslapis
METAR-TAF:

METAR-TAF

Oro uostai :

Davidas, Panama

platuma: 08-24N, ilguma: 082-25W, Aukštis: 29 m

Dabartinis oras

Ataskaita buvo paskelbta 27 minutes, ne 13:00 UTC
Vėjas 13 kt iš Šiaurės/Šiaurės Rytų
Temperatūra 28°C
Drėgmė 58%
Slėgis 1011 hPa
Matomumas 10 km arba daugiau
Mažai debesys ne aukštis 1800 ft

METAR: MPDA 281300Z 03013KT 9999 FEW018 28/19 Q1011

Laikas: 08:27 (13:27 UTC)

Prognozė

Ataskaita buvo paskelbta 2 valandos ir 27 minutes, ne 11:00 UTC
Prognozė galioja nuo 28 metu 12 UTC su 28 metu 24 UTC
Vėjas 6 kt iš Šiaurės/Šiaurės Rytų
Matomumas 10 km arba daugiau
Mažai debesys ne aukštis 1800 ft
Tapsmas
nuo 28 metu 17 UTC su 28 metu 21 UTC
Vėjas 10 kt iš Pietų

TAF: MPDA 281100Z 2812/2824 02006KT 9999 FEW018 BECMG 2817/2821 18010KT

Orai ataskaitas ir orų prognozės (METAR, TAF).

turimą stotys yra geltonos ir raudonos taškus žemėlapyje.

Perkelti pele per norėdami pamatyti stoties vardą.

Tada spustelėkite, norėdami matyti oro stebėjimo ir prognozės.

Norėdami pakeisti žemėlapį: spustelėkite ant žalios mygtukų su juodo kryžiaus žemyn,; žalią mygtuką su brūkšneliu, jei norite nutolinti; arba žalių rodyklių gretimoms žemėlapius.


METAR-TAF: